Flugplatz Halle-Oppin

Für EDAQ sind keine METAR/TAF Berichte vorhanden.
Es werden die Flugwettermeldungen vom Flugplatz Leipzig Halle in 19 km Entfernung angezeigt.

Bericht für EDDP

vom 10.04. um 11:50 UTC

Wind 3 kt aus 30°

Sichtweite 10 km oder mehr

gering bewölkt in 1300 ft

aufgelockert bewölkt in 2000 ft

aufgebrochene Bewölkung in 3000 ft

Temperatur 8.0°C

Taupunkt 5.0°C

Luftfeuchtigkeit 81%

Luftdruck 1015 hPa

keine wesentliche Wetteränderung innerhalb den nächsten 2 Stunden zu erwarten

EDDP 101150Z 03003KT 340V060 9999 FEW013 SCT020 BKN030 08/05 Q1015 NOSIG

Prognose für EDDP

vom 10.04. um 11:00 UTC

Zwischen 12:00 UTC und 13:00 UTC

Wind 4 kt aus 20°

Sichtweite 10 km oder mehr

aufgelockert bewölkt in 4000 ft


Zwischen 13:00 und 15:00 UTC übergehend zu

Wind 8 kt aus 80°

Sichtweite 10 km oder mehr

aufgelockert bewölkt in 4000 ft


Zwischen 19:00 und 21:00 UTC übergehend zu

Wind 9 kt aus 140°

Sichtweite 10 km oder mehr

aufgelockert bewölkt in 4000 ft

TAF EDDP 101100Z 1012/1112 02004KT 9999 SCT040 BECMG 1013/1015 08008KT BECMG 1019/1021 14009KT
Impressum